createdAt,value
2023-02-18T00:00:24.238Z,3.90
2023-02-18T00:02:52.872Z,3.40
2023-02-18T00:05:20.202Z,3.60
2023-02-18T00:07:47.446Z,3.75
2023-02-18T00:10:16.016Z,4.13
2023-02-18T00:12:43.550Z,3.50
2023-02-18T00:15:11.095Z,3.75
2023-02-18T00:17:38.562Z,3.40
2023-02-18T00:20:06.838Z,3.70
2023-02-18T00:22:34.011Z,3.78
2023-02-18T00:25:01.487Z,3.83
2023-02-18T00:27:28.725Z,3.72
2023-02-18T00:29:55.965Z,3.70
2023-02-18T00:32:23.296Z,3.03
2023-02-18T00:34:50.475Z,3.20
2023-02-18T00:37:17.662Z,3.80
2023-02-18T00:39:44.767Z,4.63
2023-02-18T00:42:12.007Z,4.15
2023-02-18T00:44:39.368Z,4.00
2023-02-18T00:47:06.521Z,3.75
2023-02-18T00:49:33.947Z,3.88
2023-02-18T00:52:01.185Z,3.72
2023-02-18T00:54:28.346Z,3.40
2023-02-18T00:56:55.536Z,3.20
2023-02-18T00:59:22.719Z,3.50
2023-02-18T01:01:49.914Z,3.53
2023-02-18T01:04:17.118Z,3.05
2023-02-18T01:06:44.401Z,3.17
2023-02-18T01:09:11.588Z,3.38
2023-02-18T01:11:39.034Z,3.22
2023-02-18T01:14:06.226Z,2.90
2023-02-18T01:16:33.453Z,3.15
2023-02-18T01:19:00.638Z,2.85
2023-02-18T01:21:27.869Z,3.55
2023-02-18T01:23:55.097Z,3.22
2023-02-18T01:26:22.379Z,3.00
2023-02-18T01:28:52.260Z,2.63
2023-02-18T01:31:19.571Z,3.25
2023-02-18T01:33:47.077Z,3.30
2023-02-18T01:36:14.322Z,3.10
2023-02-18T01:38:41.623Z,2.80
2023-02-18T01:41:08.908Z,3.00
2023-02-18T01:43:36.270Z,3.03
2023-02-18T01:46:08.721Z,2.65
2023-02-18T01:48:43.911Z,2.50
2023-02-18T01:51:13.946Z,2.40
2023-02-18T01:53:45.155Z,2.30
2023-02-18T01:56:15.439Z,2.33
2023-02-18T01:58:43.169Z,2.83
2023-02-18T02:01:10.619Z,2.88
2023-02-18T02:03:37.774Z,2.63
2023-02-18T02:06:07.565Z,3.00
2023-02-18T02:08:34.925Z,2.30
2023-02-18T02:11:18.692Z,2.38
2023-02-18T02:13:48.865Z,2.15
2023-02-18T02:16:21.617Z,2.03
2023-02-18T02:18:59.434Z,1.98
2023-02-18T02:21:40.256Z,2.40
2023-02-18T02:24:13.624Z,2.50
2023-02-18T02:26:59.606Z,2.17
2023-02-18T02:29:45.241Z,2.45
2023-02-18T02:32:31.203Z,2.33
2023-02-18T02:35:10.172Z,2.00
2023-02-18T02:37:50.644Z,2.58
2023-02-18T02:40:26.096Z,2.05
2023-02-18T02:43:00.707Z,1.77
2023-02-18T02:45:36.830Z,2.28
2023-02-18T02:48:16.228Z,2.10
2023-02-18T02:50:46.525Z,2.20
2023-02-18T02:53:23.508Z,1.90
2023-02-18T02:55:50.774Z,1.42
2023-02-18T02:58:19.731Z,2.00
2023-02-18T03:01:05.966Z,1.60
2023-02-18T03:03:40.815Z,1.70
2023-02-18T03:06:30.988Z,1.83
2023-02-18T03:09:33.962Z,1.67
2023-02-18T03:12:01.139Z,1.90
2023-02-18T03:14:42.083Z,1.27
2023-02-18T03:17:13.827Z,1.55
2023-02-18T03:19:44.867Z,1.50
2023-02-18T03:22:19.388Z,1.60
2023-02-18T03:24:48.064Z,1.60
2023-02-18T03:27:18.465Z,1.88
2023-02-18T03:29:48.701Z,1.30
2023-02-18T03:32:18.066Z,1.40
2023-02-18T03:34:48.619Z,1.52
2023-02-18T03:37:16.722Z,1.48
2023-02-18T03:39:46.773Z,1.27
2023-02-18T03:42:16.933Z,1.60
2023-02-18T03:44:44.059Z,1.20
2023-02-18T03:47:11.576Z,1.23
2023-02-18T03:49:38.754Z,1.20
2023-02-18T03:52:06.000Z,1.30
2023-02-18T03:54:33.237Z,1.50
2023-02-18T03:57:00.503Z,1.80
2023-02-18T03:59:27.639Z,1.70
2023-02-18T04:01:54.765Z,1.63
2023-02-18T04:04:21.997Z,1.80
2023-02-18T04:06:49.205Z,1.42
2023-02-18T04:09:16.358Z,1.67
2023-02-18T04:11:43.500Z,1.67
2023-02-18T04:14:10.931Z,1.65
2023-02-18T04:16:38.075Z,1.30
2023-02-18T04:19:05.352Z,1.23
2023-02-18T04:21:32.594Z,1.52
2023-02-18T04:24:01.240Z,1.63
2023-02-18T04:26:28.726Z,1.50
2023-02-18T04:28:55.892Z,1.45
2023-02-18T04:31:23.239Z,1.40
2023-02-18T04:33:50.423Z,1.73
2023-02-18T04:36:17.537Z,1.50
2023-02-18T04:38:44.712Z,1.83
2023-02-18T04:41:12.844Z,1.40
2023-02-18T04:43:40.294Z,1.30
2023-02-18T04:46:07.836Z,1.42
2023-02-18T04:48:35.216Z,1.30
2023-02-18T04:51:02.660Z,1.20
2023-02-18T04:53:29.784Z,1.10
2023-02-18T04:55:56.986Z,1.35
2023-02-18T04:58:24.751Z,1.20
2023-02-18T05:00:53.385Z,1.20
2023-02-18T05:03:20.601Z,1.27
2023-02-18T05:05:47.780Z,0.82
2023-02-18T05:08:16.334Z,1.13
2023-02-18T05:10:43.674Z,1.10
2023-02-18T05:13:10.943Z,1.20
2023-02-18T05:15:38.138Z,1.02
2023-02-18T05:18:05.412Z,1.13
2023-02-18T05:20:32.638Z,1.33
2023-02-18T05:22:59.914Z,0.90
2023-02-18T05:25:27.153Z,1.15
2023-02-18T05:27:54.391Z,0.90
2023-02-18T05:30:21.713Z,0.80
2023-02-18T05:32:49.178Z,0.90
2023-02-18T05:35:16.678Z,1.10
2023-02-18T05:37:44.063Z,0.98
2023-02-18T05:40:11.779Z,0.73
2023-02-18T05:42:39.012Z,0.80
2023-02-18T05:45:06.363Z,1.00
2023-02-18T05:47:33.552Z,1.15
2023-02-18T05:50:00.813Z,0.85
2023-02-18T05:52:28.117Z,0.80
2023-02-18T05:54:55.742Z,0.82
2023-02-18T05:57:23.030Z,0.88
2023-02-18T05:59:50.162Z,0.82
2023-02-18T06:02:17.359Z,0.80
2023-02-18T06:04:44.531Z,0.70
2023-02-18T06:07:12.233Z,1.00
2023-02-18T06:09:39.366Z,0.98
2023-02-18T06:12:06.671Z,1.20
2023-02-18T06:14:33.872Z,0.70
2023-02-18T06:17:01.012Z,0.98
2023-02-18T06:19:28.231Z,0.98
2023-02-18T06:21:56.409Z,0.90
2023-02-18T06:24:23.607Z,1.00
2023-02-18T06:26:50.942Z,0.90
2023-02-18T06:29:18.084Z,0.80
2023-02-18T06:31:45.406Z,0.98
2023-02-18T06:34:12.939Z,0.70
2023-02-18T06:36:40.425Z,0.60
2023-02-18T06:39:07.662Z,0.70
2023-02-18T06:41:35.250Z,0.70
2023-02-18T06:44:02.505Z,0.65
2023-02-18T06:46:30.091Z,0.60
2023-02-18T06:48:57.286Z,0.40
2023-02-18T06:51:24.970Z,0.90
2023-02-18T06:53:52.358Z,0.60
2023-02-18T06:56:19.498Z,0.50
2023-02-18T06:58:46.690Z,0.60
2023-02-18T07:01:13.928Z,1.52
2023-02-18T07:03:41.410Z,0.68
2023-02-18T07:06:09.259Z,0.50
2023-02-18T07:08:39.199Z,0.40
2023-02-18T07:11:06.425Z,0.50
2023-02-18T07:13:33.645Z,0.40
2023-02-18T07:16:00.943Z,0.50
2023-02-18T07:18:28.253Z,0.60
2023-02-18T07:20:55.433Z,0.30
2023-02-18T07:23:22.615Z,0.40
2023-02-18T07:25:49.794Z,0.20
2023-02-18T07:28:16.992Z,0.30
2023-02-18T07:30:44.166Z,0.50
2023-02-18T07:33:11.391Z,0.30
2023-02-18T07:35:38.583Z,0.40
2023-02-18T07:38:05.780Z,0.40
2023-02-18T07:40:32.887Z,0.40
2023-02-18T07:43:00.355Z,0.50
2023-02-18T07:45:37.723Z,0.35
2023-02-18T07:48:04.915Z,0.55
2023-02-18T07:50:37.003Z,0.77
2023-02-18T07:53:07.914Z,0.40
2023-02-18T07:55:50.471Z,0.30
2023-02-18T07:58:18.639Z,0.22
2023-02-18T08:00:47.679Z,0.20
2023-02-18T08:03:15.390Z,0.20
2023-02-18T08:05:42.636Z,0.20
2023-02-18T08:08:13.737Z,0.57
2023-02-18T08:10:40.970Z,0.30
2023-02-18T08:13:08.341Z,0.50
2023-02-18T08:15:35.520Z,0.13
2023-02-18T08:18:03.245Z,0.00
2023-02-18T08:20:30.850Z,0.20
2023-02-18T08:22:58.182Z,0.50
2023-02-18T08:25:29.716Z,0.47
2023-02-18T08:27:57.560Z,0.10
2023-02-18T08:30:24.803Z,0.10
2023-02-18T08:32:52.240Z,0.10
2023-02-18T08:35:19.690Z,0.20
2023-02-18T08:37:52.214Z,0.30
2023-02-18T08:42:47.779Z,0.13
2023-02-18T08:45:14.924Z,0.13
2023-02-18T08:48:16.153Z,0.40
2023-02-18T08:50:29.269Z,0.10
2023-02-18T08:52:57.398Z,0.10
2023-02-18T08:55:25.113Z,0.00
2023-02-18T08:57:52.322Z,0.10
2023-02-18T09:00:19.987Z,0.10
2023-02-18T09:02:47.901Z,0.10
2023-02-18T09:05:15.700Z,0.10
2023-02-18T09:07:42.863Z,0.10
2023-02-18T09:10:10.555Z,0.10
2023-02-18T09:12:38.065Z,0.10
2023-02-18T09:15:05.605Z,0.00
2023-02-18T09:17:33.398Z,0.20
2023-02-18T09:20:00.575Z,0.20
2023-02-18T09:22:27.797Z,0.10
2023-02-18T09:24:54.990Z,0.40
2023-02-18T09:27:22.406Z,0.43
2023-02-18T09:29:50.868Z,0.50
2023-02-18T09:32:32.462Z,0.75
2023-02-18T09:35:02.689Z,0.70
2023-02-18T09:37:30.153Z,1.20
2023-02-18T09:39:57.345Z,0.63
2023-02-18T09:42:28.766Z,0.70
2023-02-18T09:44:58.828Z,1.10
2023-02-18T09:47:39.835Z,0.90
2023-02-18T09:50:09.804Z,1.20
2023-02-18T09:52:38.564Z,1.25
2023-02-18T09:55:24.748Z,1.25
2023-02-18T09:57:56.793Z,1.13
2023-02-18T10:00:28.002Z,1.30
2023-02-18T10:03:14.140Z,1.15
2023-02-18T10:05:43.724Z,1.38
2023-02-18T10:08:21.287Z,1.60
2023-02-18T10:10:48.780Z,1.20
2023-02-18T10:13:17.405Z,1.23
2023-02-18T10:15:45.140Z,1.08
2023-02-18T10:18:21.180Z,1.30
2023-02-18T10:20:48.699Z,1.10
2023-02-18T10:23:16.654Z,1.00
2023-02-18T10:25:45.901Z,1.20
2023-02-18T10:28:13.834Z,1.15
2023-02-18T10:30:42.969Z,1.10
2023-02-18T10:33:33.911Z,1.15
2023-02-18T10:36:04.118Z,0.90
2023-02-18T10:38:31.346Z,1.17
2023-02-18T10:41:09.013Z,0.98
2023-02-18T10:43:47.742Z,0.88
2023-02-18T10:46:14.900Z,0.90
2023-02-18T10:48:50.172Z,0.88
2023-02-18T10:51:24.881Z,0.90
2023-02-18T10:53:53.822Z,0.75
2023-02-18T10:56:38.467Z,0.95
2023-02-18T10:59:13.325Z,1.05
2023-02-18T11:01:41.205Z,1.02
2023-02-18T11:04:13.647Z,1.20
2023-02-18T11:06:43.069Z,1.02
2023-02-18T11:09:24.206Z,1.50
2023-02-18T11:12:01.499Z,1.48
2023-02-18T11:14:39.380Z,1.80
2023-02-18T11:17:26.968Z,1.80
2023-02-18T11:19:55.873Z,1.27
2023-02-18T11:22:25.481Z,1.40
2023-02-18T11:24:55.258Z,1.42
2023-02-18T11:27:24.621Z,1.20
2023-02-18T11:29:56.716Z,0.98
2023-02-18T11:32:26.940Z,1.27
2023-02-18T11:34:54.239Z,1.20
2023-02-18T11:37:36.039Z,1.13
2023-02-18T11:40:03.638Z,0.90
2023-02-18T11:42:31.175Z,0.98
2023-02-18T11:44:59.691Z,1.02
2023-02-18T11:47:37.246Z,1.23
2023-02-18T11:50:16.042Z,0.80
2023-02-18T11:52:44.496Z,0.68
2023-02-18T11:55:17.342Z,0.80
2023-02-18T11:57:50.789Z,0.50
2023-02-18T12:00:18.125Z,0.50
2023-02-18T12:02:45.411Z,0.65
2023-02-18T12:05:15.312Z,0.70
2023-02-18T12:07:47.701Z,0.85
2023-02-18T12:10:22.237Z,2.08
2023-02-18T12:12:53.959Z,0.50
2023-02-18T12:15:25.197Z,0.70
2023-02-18T12:18:02.551Z,0.40
2023-02-18T12:20:43.790Z,0.70
2023-02-18T12:23:28.522Z,0.30
2023-02-18T12:26:13.856Z,0.60
2023-02-18T12:28:49.405Z,0.80
2023-02-18T12:31:26.337Z,0.55
2023-02-18T12:34:07.171Z,0.63
2023-02-18T12:36:46.170Z,0.38
2023-02-18T12:39:19.358Z,0.60
2023-02-18T12:42:10.777Z,0.50
2023-02-18T12:44:45.852Z,0.40
2023-02-18T12:47:26.997Z,0.50
2023-02-18T12:50:00.280Z,0.40
2023-02-18T12:52:30.804Z,0.20
2023-02-18T12:55:21.330Z,0.40
2023-02-18T12:57:54.778Z,0.52
2023-02-18T13:00:34.106Z,0.22
2023-02-18T13:03:14.977Z,0.40
2023-02-18T13:05:50.458Z,0.45
2023-02-18T13:08:24.756Z,0.40
2023-02-18T13:10:55.878Z,0.38
2023-02-18T13:13:27.696Z,0.50
2023-02-18T13:16:00.214Z,0.40
2023-02-18T13:18:41.678Z,0.50
2023-02-18T13:21:11.905Z,0.40
2023-02-18T13:23:41.195Z,0.40
2023-02-18T13:26:10.539Z,0.30
2023-02-18T13:28:47.026Z,0.30
2023-02-18T13:31:20.729Z,0.47
2023-02-18T13:33:51.990Z,0.50
2023-02-18T13:36:38.462Z,0.30
2023-02-18T13:39:20.256Z,0.30
2023-02-18T13:41:51.591Z,0.30
2023-02-18T13:44:22.087Z,0.32
2023-02-18T13:46:54.277Z,0.45
2023-02-18T13:49:25.504Z,0.35
2023-02-18T13:51:54.026Z,0.50
2023-02-18T13:54:30.396Z,0.68
2023-02-18T13:57:17.094Z,0.35
2023-02-18T13:59:53.350Z,0.40
2023-02-18T14:02:21.109Z,0.30
2023-02-18T14:04:48.544Z,0.30
2023-02-18T14:07:31.287Z,0.40
2023-02-18T14:09:59.652Z,0.32
2023-02-18T14:12:45.542Z,0.43
2023-02-18T14:15:19.234Z,0.40
2023-02-18T14:18:05.384Z,0.38
2023-02-18T14:20:38.586Z,0.40
2023-02-18T14:23:20.844Z,0.30
2023-02-18T14:25:51.040Z,0.47
2023-02-18T14:28:36.251Z,0.70
2023-02-18T14:31:04.976Z,0.70
2023-02-18T14:33:32.963Z,1.00
2023-02-18T14:36:18.694Z,0.55
2023-02-18T14:39:01.039Z,0.45
2023-02-18T14:41:46.148Z,0.20
2023-02-18T14:44:34.813Z,0.20
2023-02-18T14:47:23.467Z,0.50
2023-02-18T14:49:53.474Z,0.20
2023-02-18T14:52:24.193Z,0.10
2023-02-18T14:54:51.765Z,0.30
2023-02-18T14:57:21.724Z,0.45
2023-02-18T14:59:49.222Z,0.17
2023-02-18T15:02:25.007Z,0.22
2023-02-18T15:04:52.253Z,0.38
2023-02-18T15:07:21.074Z,0.20
2023-02-18T15:09:50.080Z,0.30
2023-02-18T15:12:19.650Z,0.38
2023-02-18T15:14:48.010Z,1.10
2023-02-18T15:17:17.856Z,2.17
2023-02-18T15:19:50.225Z,4.18
2023-02-18T15:22:21.795Z,0.20
2023-02-18T15:24:50.107Z,0.30
2023-02-18T15:27:28.755Z,0.22
2023-02-18T15:30:17.707Z,0.20
2023-02-18T15:32:55.532Z,0.60
2023-02-18T15:35:23.611Z,0.32
2023-02-18T15:37:54.933Z,0.25
2023-02-18T15:40:23.806Z,0.20
2023-02-18T15:42:52.356Z,0.20
2023-02-18T15:45:24.054Z,0.25
2023-02-18T15:47:53.674Z,0.13
2023-02-18T15:50:23.189Z,0.10
2023-02-18T15:52:51.177Z,0.30
2023-02-18T15:55:41.700Z,0.22
2023-02-18T15:58:12.383Z,0.20
2023-02-18T16:00:41.485Z,0.30
2023-02-18T16:03:16.899Z,0.30
2023-02-18T16:05:44.296Z,0.55
2023-02-18T16:08:16.072Z,0.40
2023-02-18T16:10:47.847Z,0.30
2023-02-18T16:13:16.631Z,0.20
2023-02-18T16:15:45.379Z,0.25
2023-02-18T16:18:23.380Z,0.68
2023-02-18T16:20:55.655Z,0.30
2023-02-18T16:23:27.481Z,0.10
2023-02-18T16:25:54.953Z,0.30
2023-02-18T16:28:33.040Z,0.35
2023-02-18T16:31:00.281Z,0.22
2023-02-18T16:33:27.429Z,0.25
2023-02-18T16:35:57.717Z,0.30
2023-02-18T16:38:25.554Z,0.20
2023-02-18T16:40:54.181Z,0.30
2023-02-18T16:43:23.403Z,0.40
2023-02-18T16:45:56.481Z,0.20
2023-02-18T16:48:33.926Z,0.20
2023-02-18T16:51:02.454Z,0.68
2023-02-18T16:53:29.612Z,0.30
2023-02-18T16:55:56.988Z,0.10
2023-02-18T16:58:24.217Z,0.22
2023-02-18T17:00:52.932Z,0.55
2023-02-18T17:03:20.751Z,0.45
2023-02-18T17:05:48.147Z,0.20
2023-02-18T17:08:25.877Z,0.20
2023-02-18T17:10:54.322Z,0.08
2023-02-18T17:13:24.023Z,0.15
2023-02-18T17:15:52.516Z,0.17
2023-02-18T17:18:20.101Z,0.47
2023-02-18T17:20:48.439Z,0.20
2023-02-18T17:23:16.431Z,0.40
2023-02-18T17:25:43.999Z,0.20
2023-02-18T17:28:11.448Z,0.20
2023-02-18T17:30:40.162Z,0.40
2023-02-18T17:33:07.729Z,0.13
2023-02-18T17:35:34.917Z,0.30
2023-02-18T17:38:02.156Z,0.30
2023-02-18T17:40:29.762Z,0.22
2023-02-18T17:42:57.147Z,0.20
2023-02-18T17:45:28.863Z,0.10
2023-02-18T17:47:57.201Z,0.10
2023-02-18T17:50:24.891Z,0.10
2023-02-18T17:52:52.163Z,0.20
2023-02-18T17:55:21.409Z,0.20
2023-02-18T17:57:48.711Z,0.10
2023-02-18T18:00:17.319Z,0.20
2023-02-18T18:02:44.786Z,0.30
2023-02-18T18:05:25.682Z,0.20
2023-02-18T18:07:53.163Z,0.20
2023-02-18T18:10:22.126Z,0.30
2023-02-18T18:12:50.320Z,0.20
2023-02-18T18:15:34.975Z,0.20
2023-02-18T18:18:02.205Z,0.10
2023-02-18T18:20:30.550Z,0.30
2023-02-18T18:22:58.384Z,0.10
2023-02-18T18:25:27.132Z,0.22
2023-02-18T18:27:54.747Z,0.20
2023-02-18T18:30:23.058Z,0.20
2023-02-18T18:32:50.662Z,0.20
2023-02-18T18:35:25.867Z,0.20
2023-02-18T18:37:53.419Z,0.20
2023-02-18T18:40:22.147Z,0.20
2023-02-18T18:42:49.423Z,0.20
2023-02-18T18:45:21.155Z,0.32
2023-02-18T18:47:51.458Z,0.25
2023-02-18T18:50:19.152Z,0.15
2023-02-18T18:52:47.213Z,0.20
2023-02-18T18:55:34.667Z,0.22
2023-02-18T18:58:02.068Z,0.40
2023-02-18T19:00:33.845Z,0.55
2023-02-18T19:03:02.205Z,0.50
2023-02-18T19:05:31.464Z,0.20
2023-02-18T19:07:59.227Z,0.30
2023-02-18T19:10:31.155Z,0.30
2023-02-18T19:13:06.095Z,0.40
2023-02-18T19:15:33.444Z,0.60
2023-02-18T19:18:01.109Z,0.57
2023-02-18T19:20:30.269Z,0.32
2023-02-18T19:22:57.611Z,0.45
2023-02-18T19:25:25.773Z,0.60
2023-02-18T19:27:53.030Z,1.42
2023-02-18T19:30:24.577Z,1.20
2023-02-18T19:32:53.477Z,1.20
2023-02-18T19:35:21.148Z,2.60
2023-02-18T19:37:48.499Z,1.02
2023-02-18T19:40:17.807Z,2.70
2023-02-18T19:42:44.951Z,2.60
2023-02-18T19:45:12.257Z,2.67
2023-02-18T19:47:40.978Z,2.10
2023-02-18T19:50:08.895Z,2.40
2023-02-18T19:52:36.304Z,1.98
2023-02-18T19:55:03.560Z,2.15
2023-02-18T19:57:30.942Z,1.85
2023-02-18T19:59:58.106Z,1.80
2023-02-18T20:02:26.089Z,1.60
2023-02-18T20:04:54.702Z,1.98
2023-02-18T20:07:22.960Z,1.60
2023-02-18T20:09:53.616Z,1.95
2023-02-18T20:12:21.273Z,1.65
2023-02-18T20:14:50.132Z,2.40
2023-02-18T20:17:17.376Z,2.35
2023-02-18T20:19:44.530Z,2.08
2023-02-18T20:22:11.723Z,2.20
2023-02-18T20:24:40.083Z,2.42
2023-02-18T20:27:07.973Z,3.50
2023-02-18T20:29:36.274Z,3.15
2023-02-18T20:32:04.210Z,1.70
2023-02-18T20:34:31.589Z,1.80
2023-02-18T20:36:58.758Z,3.20
2023-02-18T20:39:25.946Z,3.53
2023-02-18T20:41:53.200Z,2.10
2023-02-18T20:44:21.042Z,2.55
2023-02-18T20:46:50.021Z,2.60
2023-02-18T20:49:18.718Z,2.35
2023-02-18T20:51:46.281Z,2.20
2023-02-18T20:54:15.744Z,1.55
2023-02-18T20:56:44.280Z,2.60
2023-02-18T20:59:15.436Z,2.95
2023-02-18T21:01:43.330Z,2.40
2023-02-18T21:04:14.328Z,2.10
2023-02-18T21:06:42.367Z,2.40
2023-02-18T21:09:09.999Z,2.50
2023-02-18T21:11:37.106Z,2.40
2023-02-18T21:14:04.792Z,2.22
2023-02-18T21:16:33.233Z,2.38
2023-02-18T21:19:00.433Z,2.00
2023-02-18T21:21:27.828Z,2.28
2023-02-18T21:23:55.070Z,1.83
2023-02-18T21:26:23.448Z,2.72
2023-02-18T21:28:51.801Z,2.35
2023-02-18T21:31:21.461Z,2.00
2023-02-18T21:33:48.796Z,2.30
2023-02-18T21:36:16.125Z,3.13
2023-02-18T21:38:44.731Z,2.03
2023-02-18T21:41:12.519Z,2.40
2023-02-18T21:43:39.935Z,1.33
2023-02-18T21:46:21.749Z,1.10
2023-02-18T21:49:09.455Z,1.10
2023-02-18T21:51:56.941Z,0.98
2023-02-18T21:54:36.145Z,1.05
2023-02-18T21:57:04.232Z,0.90
2023-02-18T21:59:32.201Z,1.00
2023-02-18T22:02:00.417Z,0.75
2023-02-18T22:04:28.436Z,1.10
2023-02-18T22:06:55.655Z,1.10
2023-02-18T22:09:22.790Z,1.15
2023-02-18T22:11:50.154Z,1.60
2023-02-18T22:14:17.447Z,1.60
2023-02-18T22:16:44.701Z,1.40
2023-02-18T22:19:13.042Z,1.10
2023-02-18T22:21:40.593Z,0.90
2023-02-18T22:24:08.519Z,0.93
2023-02-18T22:26:35.744Z,1.30
2023-02-18T22:29:02.907Z,1.65
2023-02-18T22:31:31.010Z,1.00
2023-02-18T22:33:59.025Z,1.10
2023-02-18T22:36:27.256Z,0.95
2023-02-18T22:38:54.863Z,1.20
2023-02-18T22:41:23.311Z,1.02
2023-02-18T22:43:54.091Z,1.10
2023-02-18T22:46:21.223Z,1.20
2023-02-18T22:48:48.378Z,1.00
2023-02-18T22:51:18.214Z,0.93
2023-02-18T22:53:45.785Z,1.02
2023-02-18T22:56:14.646Z,1.10
2023-02-18T22:58:42.492Z,0.80
2023-02-18T23:01:18.798Z,1.00
2023-02-18T23:03:46.025Z,0.90
2023-02-18T23:06:13.243Z,0.90
2023-02-18T23:08:40.611Z,0.90
2023-02-18T23:11:09.907Z,0.80
2023-02-18T23:13:37.532Z,0.93
2023-02-18T23:16:06.154Z,0.90
2023-02-18T23:18:34.394Z,0.82
2023-02-18T23:21:17.694Z,0.77
2023-02-18T23:23:46.078Z,0.73
2023-02-18T23:26:13.280Z,0.90
2023-02-18T23:28:49.430Z,0.80
2023-02-18T23:31:19.928Z,0.80
2023-02-18T23:33:49.509Z,0.85
2023-02-18T23:36:18.134Z,0.70
2023-02-18T23:38:52.702Z,0.60
2023-02-18T23:41:19.994Z,0.70
2023-02-18T23:43:47.430Z,0.60
2023-02-18T23:46:17.511Z,0.63
2023-02-18T23:48:45.063Z,0.63
2023-02-18T23:51:15.552Z,0.60
2023-02-18T23:53:42.821Z,0.40
2023-02-18T23:56:13.122Z,0.90
2023-02-18T23:58:40.882Z,0.80
